createdAt,value
2022-09-01T00:00:04.212Z,7.80
2022-09-01T00:02:52.167Z,5.05
2022-09-01T00:05:20.425Z,11.07
2022-09-01T00:07:48.557Z,5.32
2022-09-01T00:10:16.897Z,9.57
2022-09-01T00:12:46.402Z,4.25
2022-09-01T00:15:15.169Z,4.18
2022-09-01T00:17:43.136Z,5.80
2022-09-01T00:20:12.895Z,6.82
2022-09-01T00:22:42.257Z,9.50
2022-09-01T00:25:10.620Z,5.15
2022-09-01T00:27:38.637Z,7.15
2022-09-01T00:30:09.325Z,6.85
2022-09-01T00:32:37.538Z,10.07
2022-09-01T00:35:06.681Z,6.80
2022-09-01T00:37:34.440Z,8.00
2022-09-01T00:40:02.425Z,5.18
2022-09-01T00:42:30.856Z,8.10
2022-09-01T00:44:58.653Z,6.07
2022-09-01T00:47:28.979Z,5.55
2022-09-01T00:49:57.141Z,6.25
2022-09-01T00:52:31.969Z,9.27
2022-09-01T00:55:08.704Z,6.30
2022-09-01T00:57:36.866Z,4.72
2022-09-01T01:00:12.605Z,5.43
2022-09-01T01:02:44.854Z,5.10
2022-09-01T01:05:15.665Z,4.47
2022-09-01T01:07:47.585Z,6.40
2022-09-01T01:10:19.393Z,5.18
2022-09-01T01:12:49.645Z,5.43
2022-09-01T01:15:17.878Z,7.28
2022-09-01T01:17:47.110Z,6.03
2022-09-01T01:20:37.184Z,4.25
2022-09-01T01:23:15.939Z,5.57
2022-09-01T01:25:48.602Z,6.00
2022-09-01T01:28:19.908Z,6.68
2022-09-01T01:30:52.375Z,8.45
2022-09-01T01:33:22.543Z,3.97
2022-09-01T01:35:52.105Z,7.10
2022-09-01T01:38:22.776Z,10.27
2022-09-01T01:40:55.677Z,6.00
2022-09-01T01:43:24.132Z,4.70
2022-09-01T01:45:54.872Z,5.53
2022-09-01T01:48:24.547Z,10.02
2022-09-01T01:50:54.697Z,8.85
2022-09-01T01:53:23.302Z,5.43
2022-09-01T01:55:52.988Z,6.70
2022-09-01T01:58:22.734Z,4.85
2022-09-01T02:00:51.619Z,3.78
2022-09-01T02:03:22.043Z,4.63
2022-09-01T02:05:52.088Z,4.65
2022-09-01T02:08:21.882Z,6.07
2022-09-01T02:10:53.354Z,7.80
2022-09-01T02:13:25.130Z,5.65
2022-09-01T02:15:56.441Z,6.45
2022-09-01T02:18:27.475Z,8.98
2022-09-01T02:20:59.032Z,9.38
2022-09-01T02:23:27.959Z,5.45
2022-09-01T02:26:18.039Z,7.75
2022-09-01T02:28:54.364Z,9.10
2022-09-01T02:31:24.230Z,11.80
2022-09-01T02:33:54.398Z,9.32
2022-09-01T02:36:25.111Z,9.85
2022-09-01T02:38:56.549Z,7.47
2022-09-01T02:41:29.247Z,8.00
2022-09-01T02:44:02.383Z,6.53
2022-09-01T02:46:30.925Z,7.65
2022-09-01T02:49:00.470Z,4.60
2022-09-01T02:51:28.552Z,7.63
2022-09-01T02:53:56.324Z,6.88
2022-09-01T02:56:27.614Z,5.40
2022-09-01T02:58:55.678Z,9.23
2022-09-01T03:01:27.147Z,5.85
2022-09-01T03:03:59.805Z,7.05
2022-09-01T03:06:28.361Z,7.38
2022-09-01T03:08:59.035Z,8.63
2022-09-01T03:11:32.554Z,8.38
2022-09-01T03:16:30.275Z,4.80
2022-09-01T03:18:58.979Z,7.80
2022-09-01T03:21:27.808Z,6.32
2022-09-01T03:23:58.081Z,7.47
2022-09-01T03:26:26.474Z,7.30
2022-09-01T03:28:56.093Z,11.15
2022-09-01T03:31:27.573Z,7.53
2022-09-01T03:34:00.545Z,8.57
2022-09-01T03:36:30.052Z,9.68
2022-09-01T03:38:58.253Z,9.57
2022-09-01T03:41:30.786Z,7.38
2022-09-01T03:44:00.864Z,8.35
2022-09-01T03:46:36.449Z,9.43
2022-09-01T03:49:07.268Z,7.57
2022-09-01T03:51:39.036Z,8.05
2022-09-01T03:54:07.325Z,6.53
2022-09-01T03:56:35.125Z,8.88
2022-09-01T03:59:05.024Z,5.45
2022-09-01T04:04:09.611Z,8.98
2022-09-01T04:06:38.202Z,6.18
2022-09-01T04:09:06.267Z,7.40
2022-09-01T04:11:35.112Z,6.63
2022-09-01T04:14:04.634Z,5.57
2022-09-01T04:16:52.299Z,6.93
2022-09-01T04:19:25.633Z,9.98
2022-09-01T04:21:55.770Z,11.95
2022-09-01T04:24:28.293Z,6.85
2022-09-01T04:26:58.639Z,6.32
2022-09-01T04:29:29.587Z,6.60
2022-09-01T04:32:02.104Z,7.22
2022-09-01T04:34:37.412Z,6.15
2022-09-01T04:37:09.215Z,7.60
2022-09-01T04:39:39.156Z,8.10
2022-09-01T04:42:09.147Z,7.97
2022-09-01T04:44:40.018Z,9.35
2022-09-01T04:47:12.187Z,5.97
2022-09-01T04:49:39.969Z,6.72
2022-09-01T04:52:07.949Z,6.20
2022-09-01T04:54:38.650Z,7.80
2022-09-01T04:57:07.412Z,8.57
2022-09-01T04:59:35.902Z,11.38
2022-09-01T05:02:07.888Z,9.65
2022-09-01T05:04:36.947Z,9.18
2022-09-01T05:07:06.345Z,12.15
2022-09-01T05:09:36.534Z,11.90
2022-09-01T05:12:12.414Z,9.95
2022-09-01T05:14:48.347Z,9.43
2022-09-01T05:19:50.748Z,12.00
2022-09-01T05:24:55.192Z,6.13
2022-09-01T05:27:23.971Z,5.20
2022-09-01T05:29:54.206Z,8.23
2022-09-01T05:32:25.955Z,6.30
2022-09-01T05:37:21.840Z,7.07
2022-09-01T05:39:50.199Z,9.45
2022-09-01T05:42:18.379Z,7.78
2022-09-01T05:44:47.979Z,5.93
2022-09-01T05:47:22.203Z,7.82
2022-09-01T05:49:53.507Z,5.22
2022-09-01T05:52:26.031Z,8.05
2022-09-01T05:57:34.233Z,6.25
2022-09-01T06:00:11.998Z,4.68
2022-09-01T06:02:43.971Z,11.98
2022-09-01T06:05:15.387Z,5.60
2022-09-01T06:07:44.271Z,10.82
2022-09-01T06:10:14.752Z,7.65
2022-09-01T06:12:45.247Z,8.90
2022-09-01T06:15:18.540Z,7.00
2022-09-01T06:17:47.078Z,6.95
2022-09-01T06:20:18.850Z,7.72
2022-09-01T06:25:17.348Z,7.28
2022-09-01T06:27:45.925Z,5.40
2022-09-01T06:30:20.158Z,4.63
2022-09-01T06:32:51.435Z,4.40
2022-09-01T06:35:21.642Z,10.57
2022-09-01T06:37:49.470Z,6.47
2022-09-01T06:40:18.142Z,3.38
2022-09-01T06:42:48.418Z,6.47
2022-09-01T06:45:17.588Z,4.65
2022-09-01T06:47:47.181Z,8.48
2022-09-01T06:55:59.276Z,4.97
2022-09-01T06:58:27.626Z,4.63
2022-09-01T07:00:55.409Z,4.65
2022-09-01T07:03:25.061Z,5.65
2022-09-01T07:06:09.623Z,2.75
2022-09-01T07:14:21.150Z,6.20
2022-09-01T07:16:53.269Z,3.47
2022-09-01T07:19:54.664Z,3.50
2022-09-01T07:23:03.387Z,5.43
2022-09-01T07:25:13.022Z,4.93
2022-09-01T07:27:49.301Z,4.85
2022-09-01T07:30:19.012Z,4.20
2022-09-01T07:32:53.031Z,10.02
2022-09-01T07:35:23.821Z,6.15
2022-09-01T07:43:34.023Z,4.82
2022-09-01T07:49:28.740Z,6.50
2022-09-01T07:51:45.425Z,3.53
2022-09-01T07:54:13.864Z,3.97
2022-09-01T07:56:44.468Z,5.15
2022-09-01T07:59:15.516Z,5.25
2022-09-01T08:01:43.913Z,5.45
2022-09-01T08:04:12.026Z,4.13
2022-09-01T08:06:40.986Z,6.90
2022-09-01T08:09:11.988Z,5.32
2022-09-01T08:12:03.182Z,5.65
2022-09-01T08:14:35.373Z,6.47
2022-09-01T08:19:53.442Z,3.97
2022-09-01T08:22:24.293Z,7.82
2022-09-01T08:24:52.898Z,5.53
2022-09-01T08:27:22.353Z,4.05
2022-09-01T08:29:50.581Z,6.70
2022-09-01T08:32:20.497Z,6.68
2022-09-01T08:34:48.317Z,10.80
2022-09-01T08:37:16.457Z,5.97
2022-09-01T08:39:44.394Z,6.30
2022-09-01T08:42:20.541Z,4.20
2022-09-01T08:44:58.657Z,2.80
2022-09-01T08:47:35.535Z,8.40
2022-09-01T08:50:09.067Z,4.45
2022-09-01T08:52:41.274Z,3.67
2022-09-01T08:55:15.401Z,5.55
2022-09-01T08:57:45.951Z,10.65
2022-09-01T09:00:20.004Z,4.72
2022-09-01T09:03:00.179Z,4.22
2022-09-01T09:05:40.018Z,4.70
2022-09-01T09:08:26.638Z,2.72
2022-09-01T09:11:05.344Z,3.10
2022-09-01T09:13:48.314Z,7.35
2022-09-01T09:16:22.648Z,2.70
2022-09-01T09:18:55.887Z,3.25
2022-09-01T09:21:27.865Z,4.05
2022-09-01T09:24:01.693Z,3.15
2022-09-01T09:26:42.114Z,5.40
2022-09-01T09:29:10.809Z,3.08
2022-09-01T09:31:45.955Z,7.00
2022-09-01T09:34:19.374Z,8.45
2022-09-01T09:36:53.876Z,8.52
2022-09-01T09:39:23.341Z,3.75
2022-09-01T09:42:08.993Z,5.20
2022-09-01T09:44:44.632Z,1.80
2022-09-01T09:47:46.570Z,7.18
2022-09-01T09:50:26.565Z,4.95
2022-09-01T09:53:12.910Z,1.98
2022-09-01T09:55:56.229Z,5.03
2022-09-01T09:58:27.457Z,3.63
2022-09-01T10:01:04.105Z,4.45
2022-09-01T10:03:42.190Z,1.80
2022-09-01T10:06:13.340Z,1.60
2022-09-01T10:08:48.026Z,2.75
2022-09-01T10:11:35.543Z,1.73
2022-09-01T10:14:08.124Z,2.70
2022-09-01T10:19:13.341Z,1.77
2022-09-01T10:21:47.136Z,1.98
2022-09-01T10:24:25.855Z,0.87
2022-09-01T10:26:58.439Z,1.75
2022-09-01T10:32:30.680Z,2.35
2022-09-01T10:34:59.673Z,3.40
2022-09-01T10:37:28.617Z,4.20
2022-09-01T10:40:21.505Z,2.08
2022-09-01T10:42:57.318Z,4.65
2022-09-01T10:45:34.098Z,1.63
2022-09-01T10:48:32.087Z,1.65
2022-09-01T10:51:39.135Z,1.77
2022-09-01T10:54:55.584Z,1.38
2022-09-01T10:57:46.033Z,2.10
2022-09-01T11:04:02.414Z,1.00
2022-09-01T11:07:17.172Z,1.50
2022-09-01T11:10:31.833Z,3.05
2022-09-01T11:13:21.435Z,4.57
2022-09-01T11:15:50.290Z,1.42
2022-09-01T11:18:26.092Z,2.78
2022-09-01T11:20:57.768Z,0.98
2022-09-01T11:23:30.364Z,1.50
2022-09-01T11:28:49.741Z,3.08
2022-09-01T11:31:34.024Z,4.47
2022-09-01T11:34:12.979Z,3.28
2022-09-01T11:36:54.248Z,3.05
2022-09-01T11:39:32.460Z,0.70
2022-09-01T11:42:04.374Z,1.65
2022-09-01T11:44:42.516Z,5.45
2022-09-01T11:47:16.565Z,1.63
2022-09-01T11:49:53.032Z,2.05
2022-09-01T11:52:24.213Z,3.05
2022-09-01T11:54:52.688Z,1.25
2022-09-01T11:57:23.490Z,1.45
2022-09-01T11:59:53.713Z,4.03
2022-09-01T12:02:25.247Z,1.60
2022-09-01T12:04:56.124Z,0.88
2022-09-01T12:07:36.582Z,0.98
2022-09-01T12:10:05.088Z,1.98
2022-09-01T12:12:36.529Z,2.53
2022-09-01T12:15:10.699Z,3.47
2022-09-01T12:17:41.973Z,2.70
2022-09-01T12:20:30.010Z,3.42
2022-09-01T12:22:59.819Z,6.07
2022-09-01T12:25:30.056Z,1.58
2022-09-01T12:28:00.444Z,2.58
2022-09-01T12:30:35.198Z,1.27
2022-09-01T12:33:23.531Z,0.90
2022-09-01T12:35:56.085Z,2.92
2022-09-01T12:38:30.754Z,1.20
2022-09-01T12:41:00.008Z,5.38
2022-09-01T12:43:33.255Z,2.42
2022-09-01T12:46:04.614Z,1.58
2022-09-01T12:48:35.074Z,5.75
2022-09-01T12:51:09.373Z,4.18
2022-09-01T12:53:37.705Z,0.85
2022-09-01T12:56:31.924Z,1.70
2022-09-01T12:59:15.756Z,1.63
2022-09-01T13:01:47.827Z,1.55
2022-09-01T13:04:28.534Z,1.67
2022-09-01T13:07:01.646Z,2.33
2022-09-01T13:09:30.103Z,1.65
2022-09-01T13:12:11.903Z,2.00
2022-09-01T13:14:39.852Z,3.42
2022-09-01T13:17:13.977Z,1.60
2022-09-01T13:19:42.737Z,2.10
2022-09-01T13:22:11.434Z,0.57
2022-09-01T13:24:40.107Z,0.95
2022-09-01T13:27:23.675Z,1.27
2022-09-01T13:29:53.288Z,1.67
2022-09-01T13:32:24.593Z,1.95
2022-09-01T13:34:54.663Z,1.60
2022-09-01T13:37:23.976Z,1.02
2022-09-01T13:39:52.435Z,1.42
2022-09-01T13:42:20.807Z,0.43
2022-09-01T13:44:52.554Z,0.60
2022-09-01T13:47:29.575Z,3.03
2022-09-01T13:50:07.234Z,0.80
2022-09-01T13:52:37.121Z,0.65
2022-09-01T13:55:05.693Z,5.70
2022-09-01T13:57:35.925Z,2.25
2022-09-01T14:00:10.685Z,1.02
2022-09-01T14:02:41.148Z,3.25
2022-09-01T14:05:10.303Z,1.45
2022-09-01T14:07:38.189Z,8.23
2022-09-01T14:10:07.237Z,3.90
2022-09-01T14:12:35.901Z,1.20
2022-09-01T14:15:16.031Z,0.75
2022-09-01T14:17:48.724Z,1.45
2022-09-01T14:20:20.273Z,4.93
2022-09-01T14:22:50.107Z,3.08
2022-09-01T14:25:20.289Z,2.67
2022-09-01T14:27:49.598Z,1.67
2022-09-01T14:30:21.140Z,2.70
2022-09-01T14:32:50.556Z,1.55
2022-09-01T14:35:19.801Z,2.20
2022-09-01T14:37:48.076Z,2.58
2022-09-01T14:40:18.380Z,2.40
2022-09-01T14:42:49.255Z,1.02
2022-09-01T14:45:18.649Z,1.50
2022-09-01T14:47:47.528Z,1.85
2022-09-01T14:50:22.768Z,1.77
2022-09-01T14:52:54.203Z,1.67
2022-09-01T14:55:23.625Z,1.10
2022-09-01T14:57:52.146Z,2.00
2022-09-01T15:00:21.147Z,3.50
2022-09-01T15:02:49.596Z,6.28
2022-09-01T15:05:19.648Z,1.23
2022-09-01T15:07:47.909Z,2.10
2022-09-01T15:10:25.197Z,3.42
2022-09-01T15:12:54.695Z,5.07
2022-09-01T15:15:23.642Z,3.53
2022-09-01T15:17:51.556Z,5.93
2022-09-01T15:20:38.801Z,3.53
2022-09-01T15:23:07.693Z,1.95
2022-09-01T15:25:36.066Z,2.08
2022-09-01T15:28:04.335Z,7.63
2022-09-01T15:30:32.617Z,4.97
2022-09-01T15:33:00.644Z,2.72
2022-09-01T15:35:31.324Z,3.45
2022-09-01T15:37:59.478Z,0.77
2022-09-01T15:40:28.828Z,1.73
2022-09-01T15:42:58.458Z,2.58
2022-09-01T15:45:28.685Z,2.65
2022-09-01T15:47:56.902Z,2.63
2022-09-01T15:50:27.586Z,2.85
2022-09-01T15:52:59.860Z,2.78
2022-09-01T15:55:30.821Z,2.75
2022-09-01T15:57:59.035Z,1.63
2022-09-01T16:00:28.860Z,4.07
2022-09-01T16:03:01.625Z,2.38
2022-09-01T16:05:30.222Z,4.88
2022-09-01T16:08:01.433Z,4.47
2022-09-01T16:10:33.552Z,5.10
2022-09-01T16:13:04.964Z,3.25
2022-09-01T16:15:33.008Z,3.88
2022-09-01T16:18:13.343Z,1.20
2022-09-01T16:20:51.193Z,3.65
2022-09-01T16:23:22.876Z,1.95
2022-09-01T16:25:53.617Z,4.20
2022-09-01T16:28:28.132Z,3.35
2022-09-01T16:31:03.695Z,4.70
2022-09-01T16:33:33.482Z,1.83
2022-09-01T16:36:18.605Z,4.63
2022-09-01T16:38:51.941Z,2.08
2022-09-01T16:41:43.982Z,2.72
2022-09-01T16:44:24.506Z,3.47
2022-09-01T16:47:10.444Z,2.72
2022-09-01T16:49:46.497Z,3.63
2022-09-01T16:52:20.623Z,4.05
2022-09-01T16:55:00.474Z,2.75
2022-09-01T16:57:39.039Z,3.20
2022-09-01T17:00:11.109Z,2.70
2022-09-01T17:02:50.133Z,3.80
2022-09-01T17:05:25.690Z,4.60
2022-09-01T17:08:06.873Z,2.33
2022-09-01T17:10:43.171Z,4.15
2022-09-01T17:13:20.351Z,3.20
2022-09-01T17:15:56.253Z,9.30
2022-09-01T17:18:33.277Z,4.00
2022-09-01T17:21:08.621Z,4.97
2022-09-01T17:23:41.796Z,5.00
2022-09-01T17:26:18.548Z,10.25
2022-09-01T17:28:55.128Z,4.32
2022-09-01T17:31:50.821Z,5.18
2022-09-01T17:34:31.335Z,6.05
2022-09-01T17:37:10.814Z,5.65
2022-09-01T17:39:49.292Z,3.42
2022-09-01T17:42:27.792Z,6.28
2022-09-01T17:44:58.724Z,4.68
2022-09-01T17:47:37.040Z,7.47
2022-09-01T17:50:14.038Z,9.27
2022-09-01T17:53:02.429Z,10.45
2022-09-01T17:55:46.522Z,14.13
2022-09-01T17:58:28.762Z,7.43
2022-09-01T18:01:04.630Z,7.43
2022-09-01T18:04:13.994Z,9.30
2022-09-01T18:06:50.209Z,9.65
2022-09-01T18:09:21.520Z,7.35
2022-09-01T18:11:54.769Z,7.68
2022-09-01T18:14:31.821Z,7.60
2022-09-01T18:17:05.305Z,6.68
2022-09-01T18:19:38.003Z,7.70
2022-09-01T18:22:09.404Z,6.97
2022-09-01T18:24:48.478Z,5.20
2022-09-01T18:27:16.605Z,5.55
2022-09-01T18:29:47.919Z,11.75
2022-09-01T18:32:29.489Z,5.50
2022-09-01T18:35:17.261Z,4.68
2022-09-01T18:37:58.320Z,3.33
2022-09-01T18:40:30.354Z,6.18
2022-09-01T18:43:20.467Z,2.88
2022-09-01T18:45:56.859Z,8.45
2022-09-01T18:51:11.890Z,5.90
2022-09-01T18:53:47.406Z,4.60
2022-09-01T18:56:28.333Z,11.55
2022-09-01T18:59:14.705Z,6.85
2022-09-01T19:01:55.013Z,7.40
2022-09-01T19:04:29.109Z,12.02
2022-09-01T19:07:08.972Z,9.45
2022-09-01T19:09:43.615Z,6.90
2022-09-01T19:12:25.984Z,6.78
2022-09-01T19:15:05.480Z,2.28
2022-09-01T19:18:04.805Z,5.73
2022-09-01T19:20:42.064Z,4.65
2022-09-01T19:23:15.220Z,12.68
2022-09-01T19:25:43.882Z,6.80
2022-09-01T19:28:17.858Z,12.38
2022-09-01T19:30:51.342Z,10.48
2022-09-01T19:33:25.605Z,8.85
2022-09-01T19:35:58.401Z,9.20
2022-09-01T19:38:28.987Z,12.18
2022-09-01T19:41:04.922Z,9.90
2022-09-01T19:43:37.875Z,10.95
2022-09-01T19:46:16.915Z,10.52
2022-09-01T19:48:52.202Z,10.00
2022-09-01T19:51:25.574Z,8.88
2022-09-01T19:54:01.180Z,10.32
2022-09-01T19:56:35.285Z,6.97
2022-09-01T19:59:13.965Z,6.50
2022-09-01T20:01:47.465Z,7.82
2022-09-01T20:04:27.755Z,4.43
2022-09-01T20:07:00.311Z,4.97
2022-09-01T20:09:36.581Z,6.70
2022-09-01T20:12:14.376Z,4.15
2022-09-01T20:14:57.325Z,4.93
2022-09-01T20:17:30.457Z,5.35
2022-09-01T20:20:07.587Z,3.67
2022-09-01T20:22:55.036Z,6.32
2022-09-01T20:25:26.180Z,8.35
2022-09-01T20:28:02.581Z,2.72
2022-09-01T20:30:39.738Z,3.30
2022-09-01T20:33:16.007Z,2.90
2022-09-01T20:35:50.181Z,5.30
2022-09-01T20:38:42.821Z,5.68
2022-09-01T20:43:47.511Z,5.15
2022-09-01T20:48:48.036Z,2.70
2022-09-01T20:51:27.605Z,5.18
2022-09-01T20:54:06.752Z,2.97
2022-09-01T20:56:45.510Z,3.35
2022-09-01T20:59:23.067Z,2.80
2022-09-01T21:01:59.153Z,5.25
2022-09-01T21:04:38.996Z,4.85
2022-09-01T21:07:15.692Z,3.63
2022-09-01T21:09:55.287Z,4.55
2022-09-01T21:12:31.762Z,4.22
2022-09-01T21:15:12.055Z,4.25
2022-09-01T21:17:45.874Z,7.80
2022-09-01T21:20:23.034Z,4.38
2022-09-01T21:22:52.730Z,3.38
2022-09-01T21:25:21.061Z,3.78
2022-09-01T21:27:55.502Z,3.80
2022-09-01T21:30:25.795Z,10.02
2022-09-01T21:32:54.380Z,4.65
2022-09-01T21:35:23.013Z,4.55
2022-09-01T21:37:53.149Z,4.80
2022-09-01T21:40:24.169Z,6.60
2022-09-01T21:42:56.176Z,7.25
2022-09-01T21:45:24.580Z,7.95
2022-09-01T21:47:53.832Z,6.63
2022-09-01T21:50:24.407Z,7.57
2022-09-01T21:52:53.802Z,5.78
2022-09-01T21:55:23.319Z,4.57
2022-09-01T21:57:51.857Z,8.43
2022-09-01T22:00:22.703Z,4.40
2022-09-01T22:02:51.310Z,8.40
2022-09-01T22:05:19.498Z,10.60
2022-09-01T22:07:48.284Z,6.65
2022-09-01T22:10:20.979Z,6.50
2022-09-01T22:12:51.104Z,9.63
2022-09-01T22:15:21.386Z,6.97
2022-09-01T22:17:49.604Z,4.72
2022-09-01T22:20:22.284Z,4.47
2022-09-01T22:22:50.703Z,8.98
2022-09-01T22:25:23.795Z,5.22
2022-09-01T22:27:51.909Z,5.28
2022-09-01T22:30:20.108Z,3.95
2022-09-01T22:32:48.285Z,4.20
2022-09-01T22:35:18.201Z,6.45
2022-09-01T22:37:46.369Z,5.43
2022-09-01T22:40:16.448Z,4.60
2022-09-01T22:42:46.053Z,8.73
2022-09-01T22:45:15.845Z,4.80
2022-09-01T22:47:43.879Z,4.53
2022-09-01T22:50:12.253Z,5.70
2022-09-01T22:52:40.737Z,8.50
2022-09-01T22:55:10.182Z,3.97
2022-09-01T22:57:38.729Z,4.10
2022-09-01T23:00:11.152Z,3.92
2022-09-01T23:02:39.169Z,5.50
2022-09-01T23:05:08.367Z,5.70
2022-09-01T23:07:39.767Z,5.20
2022-09-01T23:10:09.322Z,5.82
2022-09-01T23:12:37.387Z,7.03
2022-09-01T23:15:06.576Z,8.27
2022-09-01T23:17:37.886Z,6.10
2022-09-01T23:20:08.990Z,6.55
2022-09-01T23:22:37.035Z,5.15
2022-09-01T23:25:05.473Z,5.03
2022-09-01T23:27:33.662Z,4.78
2022-09-01T23:30:01.838Z,5.30
2022-09-01T23:32:30.118Z,4.68
2022-09-01T23:34:59.821Z,4.63
2022-09-01T23:37:27.931Z,7.05
2022-09-01T23:39:56.755Z,5.65
2022-09-01T23:42:25.491Z,8.57
2022-09-01T23:44:53.418Z,4.35
2022-09-01T23:47:21.265Z,3.70
2022-09-01T23:49:49.226Z,7.18
2022-09-01T23:52:18.846Z,3.10
2022-09-01T23:54:46.609Z,5.60
2022-09-01T23:57:14.594Z,5.25
2022-09-01T23:59:42.439Z,4.15
